sensor_id;sensor_type;location;lat;lon;timestamp;pressure;altitude;pressure_sealevel;temperature;humidity
56176;BME280;63065;51.082;17.016;2022-09-09T00:00:32;99905.20;;;19.81;54.24
56176;BME280;63065;51.082;17.016;2022-09-09T00:03:01;99906.33;;;19.55;54.29
56176;BME280;63065;51.082;17.016;2022-09-09T00:05:25;99907.02;;;19.75;54.45
56176;BME280;63065;51.082;17.016;2022-09-09T00:07:47;99906.42;;;19.73;54.43
56176;BME280;63065;51.082;17.016;2022-09-09T00:10:18;99909.00;;;20.02;54.73
56176;BME280;63065;51.082;17.016;2022-09-09T00:12:40;99911.83;;;19.83;54.73
56176;BME280;63065;51.082;17.016;2022-09-09T00:15:04;99908.23;;;19.76;54.78
56176;BME280;63065;51.082;17.016;2022-09-09T00:17:33;99909.57;;;19.85;54.59
56176;BME280;63065;51.082;17.016;2022-09-09T00:19:58;99908.42;;;19.95;54.37
56176;BME280;63065;51.082;17.016;2022-09-09T00:22:18;99907.27;;;19.93;54.34
56176;BME280;63065;51.082;17.016;2022-09-09T00:24:44;99907.31;;;19.96;54.28
56176;BME280;63065;51.082;17.016;2022-09-09T00:27:14;99913.34;;;19.95;54.16
56176;BME280;63065;51.082;17.016;2022-09-09T00:29:38;99912.00;;;20.17;54.22
56176;BME280;63065;51.082;17.016;2022-09-09T00:32:05;99911.13;;;19.86;54.03
56176;BME280;63065;51.082;17.016;2022-09-09T00:34:24;99911.07;;;19.76;53.90
56176;BME280;63065;51.082;17.016;2022-09-09T00:36:50;99909.09;;;19.72;53.95
56176;BME280;63065;51.082;17.016;2022-09-09T00:39:22;99905.67;;;19.59;54.24
56176;BME280;63065;51.082;17.016;2022-09-09T00:41:49;99907.40;;;19.55;54.22
56176;BME280;63065;51.082;17.016;2022-09-09T00:44:15;99905.62;;;19.51;54.14
56176;BME280;63065;51.082;17.016;2022-09-09T00:46:41;99903.64;;;19.57;54.13
56176;BME280;63065;51.082;17.016;2022-09-09T00:49:03;99906.22;;;19.54;54.14
56176;BME280;63065;51.082;17.016;2022-09-09T00:51:30;99907.49;;;19.59;53.93
56176;BME280;63065;51.082;17.016;2022-09-09T00:53:58;99906.18;;;19.42;53.82
56176;BME280;63065;51.082;17.016;2022-09-09T00:56:14;99908.02;;;19.43;53.79
56176;BME280;63065;51.082;17.016;2022-09-09T00:58:38;99910.04;;;19.36;53.80
56176;BME280;63065;51.082;17.016;2022-09-09T01:01:06;99913.02;;;19.60;53.82
56176;BME280;63065;51.082;17.016;2022-09-09T01:03:34;99917.13;;;19.17;53.72
56176;BME280;63065;51.082;17.016;2022-09-09T01:06:01;99916.21;;;19.38;53.87
56176;BME280;63065;51.082;17.016;2022-09-09T01:08:32;99916.66;;;19.61;53.76
56176;BME280;63065;51.082;17.016;2022-09-09T01:10:50;99914.73;;;19.51;53.98
56176;BME280;63065;51.082;17.016;2022-09-09T01:13:19;99914.22;;;19.52;53.82
56176;BME280;63065;51.082;17.016;2022-09-09T01:15:38;99914.98;;;19.32;53.74
56176;BME280;63065;51.082;17.016;2022-09-09T01:18:05;99915.15;;;18.91;53.71
56176;BME280;63065;51.082;17.016;2022-09-09T01:20:29;99916.13;;;18.93;53.97
56176;BME280;63065;51.082;17.016;2022-09-09T01:23:04;99916.12;;;19.08;53.68
56176;BME280;63065;51.082;17.016;2022-09-09T01:25:22;99920.44;;;18.84;54.07
56176;BME280;63065;51.082;17.016;2022-09-09T01:27:43;99923.34;;;19.32;54.03
56176;BME280;63065;51.082;17.016;2022-09-09T01:30:10;99925.67;;;19.15;53.82
56176;BME280;63065;51.082;17.016;2022-09-09T01:32:39;99927.91;;;19.39;53.60
56176;BME280;63065;51.082;17.016;2022-09-09T01:34:59;99929.60;;;18.78;53.75
56176;BME280;63065;51.082;17.016;2022-09-09T01:37:24;99929.47;;;19.22;54.02
56176;BME280;63065;51.082;17.016;2022-09-09T01:39:49;99930.84;;;18.73;53.88
56176;BME280;63065;51.082;17.016;2022-09-09T01:42:16;99929.82;;;18.90;53.83
56176;BME280;63065;51.082;17.016;2022-09-09T01:44:40;99931.34;;;18.96;53.81
56176;BME280;63065;51.082;17.016;2022-09-09T01:47:06;99930.88;;;19.15;53.86
56176;BME280;63065;51.082;17.016;2022-09-09T01:49:32;99931.29;;;18.86;53.75
56176;BME280;63065;51.082;17.016;2022-09-09T01:51:57;99934.56;;;18.86;53.92
56176;BME280;63065;51.082;17.016;2022-09-09T01:54:25;99938.17;;;19.07;53.74
56176;BME280;63065;51.082;17.016;2022-09-09T01:56:56;99935.15;;;18.79;53.78
56176;BME280;63065;51.082;17.016;2022-09-09T01:59:24;99939.20;;;18.93;53.59
56176;BME280;63065;51.082;17.016;2022-09-09T02:01:49;99935.63;;;18.97;53.48
56176;BME280;63065;51.082;17.016;2022-09-09T02:04:11;99939.26;;;18.99;53.67
56176;BME280;63065;51.082;17.016;2022-09-09T02:06:33;99943.26;;;18.98;53.76
56176;BME280;63065;51.082;17.016;2022-09-09T02:08:56;99944.36;;;18.91;53.75
56176;BME280;63065;51.082;17.016;2022-09-09T02:11:23;99945.24;;;18.91;53.93
56176;BME280;63065;51.082;17.016;2022-09-09T02:13:49;99949.55;;;18.85;53.55
56176;BME280;63065;51.082;17.016;2022-09-09T02:16:16;99951.59;;;18.65;53.80
56176;BME280;63065;51.082;17.016;2022-09-09T02:18:41;99948.63;;;18.71;53.95
56176;BME280;63065;51.082;17.016;2022-09-09T02:21:03;99948.68;;;18.98;53.86
56176;BME280;63065;51.082;17.016;2022-09-09T02:23:28;99948.62;;;18.97;53.76
56176;BME280;63065;51.082;17.016;2022-09-09T02:25:55;99952.39;;;18.97;53.70
56176;BME280;63065;51.082;17.016;2022-09-09T02:28:20;99954.65;;;19.01;53.60
56176;BME280;63065;51.082;17.016;2022-09-09T02:30:46;99951.44;;;19.06;53.81
56176;BME280;63065;51.082;17.016;2022-09-09T02:33:10;99951.07;;;19.08;53.71
56176;BME280;63065;51.082;17.016;2022-09-09T02:35:35;99952.32;;;18.91;53.32
56176;BME280;63065;51.082;17.016;2022-09-09T02:38:04;99956.61;;;19.09;53.57
56176;BME280;63065;51.082;17.016;2022-09-09T02:40:26;99959.64;;;18.86;53.58
56176;BME280;63065;51.082;17.016;2022-09-09T02:42:51;99956.66;;;19.06;53.59
56176;BME280;63065;51.082;17.016;2022-09-09T02:45:19;99961.20;;;18.74;53.63
56176;BME280;63065;51.082;17.016;2022-09-09T02:47:49;99958.78;;;18.81;53.61
56176;BME280;63065;51.082;17.016;2022-09-09T02:50:12;99963.00;;;19.11;53.61
56176;BME280;63065;51.082;17.016;2022-09-09T02:52:42;99967.44;;;19.31;53.10
56176;BME280;63065;51.082;17.016;2022-09-09T02:55:04;99969.80;;;19.01;53.26
56176;BME280;63065;51.082;17.016;2022-09-09T02:57:27;99968.65;;;18.93;53.37
56176;BME280;63065;51.082;17.016;2022-09-09T02:59:50;99971.65;;;18.92;53.47
56176;BME280;63065;51.082;17.016;2022-09-09T03:02:16;99974.02;;;18.97;53.28
56176;BME280;63065;51.082;17.016;2022-09-09T03:04:42;99971.36;;;18.75;53.36
56176;BME280;63065;51.082;17.016;2022-09-09T03:07:07;99973.85;;;18.93;53.40
56176;BME280;63065;51.082;17.016;2022-09-09T03:09:33;99975.52;;;18.82;53.57
56176;BME280;63065;51.082;17.016;2022-09-09T03:11:58;99978.30;;;18.84;53.38
56176;BME280;63065;51.082;17.016;2022-09-09T03:14:23;99982.23;;;18.81;53.27
56176;BME280;63065;51.082;17.016;2022-09-09T03:16:49;99981.78;;;18.52;52.72
56176;BME280;63065;51.082;17.016;2022-09-09T03:19:14;99984.68;;;18.70;53.11
56176;BME280;63065;51.082;17.016;2022-09-09T03:21:39;99986.33;;;18.52;53.05
56176;BME280;63065;51.082;17.016;2022-09-09T03:24:05;99985.30;;;18.61;53.25
56176;BME280;63065;51.082;17.016;2022-09-09T03:26:30;99986.69;;;18.65;53.32
56176;BME280;63065;51.082;17.016;2022-09-09T03:28:55;99988.14;;;18.71;53.38
56176;BME280;63065;51.082;17.016;2022-09-09T03:31:21;99989.79;;;18.72;53.48
56176;BME280;63065;51.082;17.016;2022-09-09T03:33:46;99987.28;;;18.68;53.40
56176;BME280;63065;51.082;17.016;2022-09-09T03:36:12;99988.37;;;18.49;53.39
56176;BME280;63065;51.082;17.016;2022-09-09T03:38:37;99987.75;;;18.63;53.30
56176;BME280;63065;51.082;17.016;2022-09-09T03:41:03;99990.27;;;18.48;52.58
56176;BME280;63065;51.082;17.016;2022-09-09T03:43:29;99994.82;;;18.37;53.13
56176;BME280;63065;51.082;17.016;2022-09-09T03:45:54;99993.24;;;18.29;53.06
56176;BME280;63065;51.082;17.016;2022-09-09T03:48:19;99994.23;;;18.30;52.96
56176;BME280;63065;51.082;17.016;2022-09-09T03:50:45;99995.09;;;18.55;52.83
56176;BME280;63065;51.082;17.016;2022-09-09T03:53:10;99994.23;;;18.49;52.80
56176;BME280;63065;51.082;17.016;2022-09-09T03:55:36;99992.18;;;18.44;52.72
56176;BME280;63065;51.082;17.016;2022-09-09T03:58:01;99992.20;;;18.01;52.89
56176;BME280;63065;51.082;17.016;2022-09-09T04:00:26;99995.49;;;18.16;52.87
56176;BME280;63065;51.082;17.016;2022-09-09T04:02:52;99994.55;;;18.20;53.07
56176;BME280;63065;51.082;17.016;2022-09-09T04:05:17;99995.71;;;18.41;53.12
56176;BME280;63065;51.082;17.016;2022-09-09T04:07:43;99997.31;;;18.17;53.26
56176;BME280;63065;51.082;17.016;2022-09-09T04:10:09;99998.55;;;18.14;53.33
56176;BME280;63065;51.082;17.016;2022-09-09T04:12:34;100001.88;;;18.10;53.24
56176;BME280;63065;51.082;17.016;2022-09-09T04:15:00;100000.32;;;18.61;53.04
56176;BME280;63065;51.082;17.016;2022-09-09T04:17:25;100004.94;;;18.09;53.16
56176;BME280;63065;51.082;17.016;2022-09-09T04:19:51;100008.43;;;18.33;53.18
56176;BME280;63065;51.082;17.016;2022-09-09T04:22:16;100007.06;;;18.43;52.71
56176;BME280;63065;51.082;17.016;2022-09-09T04:24:42;100009.25;;;17.84;52.69
56176;BME280;63065;51.082;17.016;2022-09-09T04:27:08;100013.68;;;17.52;52.29
56176;BME280;63065;51.082;17.016;2022-09-09T04:29:34;100012.23;;;17.52;52.71
56176;BME280;63065;51.082;17.016;2022-09-09T04:31:59;100011.79;;;17.72;52.92
56176;BME280;63065;51.082;17.016;2022-09-09T04:34:25;100011.50;;;17.97;52.78
56176;BME280;63065;51.082;17.016;2022-09-09T04:36:51;100010.75;;;17.82;52.79
56176;BME280;63065;51.082;17.016;2022-09-09T04:39:15;100012.98;;;17.76;52.88
56176;BME280;63065;51.082;17.016;2022-09-09T04:41:41;100012.64;;;17.57;52.91
56176;BME280;63065;51.082;17.016;2022-09-09T04:44:06;100013.47;;;17.92;52.54
56176;BME280;63065;51.082;17.016;2022-09-09T04:46:31;100012.15;;;17.74;52.45
56176;BME280;63065;51.082;17.016;2022-09-09T04:48:57;100009.86;;;18.22;52.39
56176;BME280;63065;51.082;17.016;2022-09-09T04:51:22;100009.92;;;18.19;52.42
56176;BME280;63065;51.082;17.016;2022-09-09T04:53:48;100014.43;;;17.76;52.69
56176;BME280;63065;51.082;17.016;2022-09-09T04:56:15;100015.40;;;18.04;52.89
56176;BME280;63065;51.082;17.016;2022-09-09T04:58:39;100014.45;;;17.92;52.78
56176;BME280;63065;51.082;17.016;2022-09-09T05:01:05;100015.88;;;18.22;52.91
56176;BME280;63065;51.082;17.016;2022-09-09T05:03:29;100016.43;;;17.95;53.01
56176;BME280;63065;51.082;17.016;2022-09-09T05:05:54;100017.54;;;17.83;53.13
56176;BME280;63065;51.082;17.016;2022-09-09T05:08:20;100018.15;;;17.97;52.82
56176;BME280;63065;51.082;17.016;2022-09-09T05:10:45;100024.87;;;17.90;52.91
56176;BME280;63065;51.082;17.016;2022-09-09T05:13:11;100029.69;;;17.84;52.93
56176;BME280;63065;51.082;17.016;2022-09-09T05:15:36;100028.68;;;18.10;52.86
56176;BME280;63065;51.082;17.016;2022-09-09T05:18:02;100030.77;;;17.86;53.04
56176;BME280;63065;51.082;17.016;2022-09-09T05:20:27;100034.52;;;17.97;53.21
56176;BME280;63065;51.082;17.016;2022-09-09T05:22:53;100035.17;;;18.07;53.31
56176;BME280;63065;51.082;17.016;2022-09-09T05:25:17;100032.41;;;18.14;53.36
56176;BME280;63065;51.082;17.016;2022-09-09T05:27:43;100035.85;;;18.23;53.36
56176;BME280;63065;51.082;17.016;2022-09-09T05:30:09;100036.35;;;18.29;53.23
56176;BME280;63065;51.082;17.016;2022-09-09T05:32:33;100036.60;;;18.21;52.97
56176;BME280;63065;51.082;17.016;2022-09-09T05:34:58;100038.32;;;18.59;53.14
56176;BME280;63065;51.082;17.016;2022-09-09T05:37:24;100038.67;;;18.51;52.98
56176;BME280;63065;51.082;17.016;2022-09-09T05:39:49;100040.36;;;18.19;53.07
56176;BME280;63065;51.082;17.016;2022-09-09T05:42:15;100040.37;;;18.58;53.17
56176;BME280;63065;51.082;17.016;2022-09-09T05:44:40;100040.19;;;18.65;52.90
56176;BME280;63065;51.082;17.016;2022-09-09T05:47:06;100040.15;;;18.61;53.28
56176;BME280;63065;51.082;17.016;2022-09-09T05:49:31;100040.74;;;18.69;53.22
56176;BME280;63065;51.082;17.016;2022-09-09T05:51:56;100037.32;;;18.59;53.12
56176;BME280;63065;51.082;17.016;2022-09-09T05:54:22;100037.98;;;18.78;53.24
56176;BME280;63065;51.082;17.016;2022-09-09T05:56:48;100036.97;;;18.83;53.13
56176;BME280;63065;51.082;17.016;2022-09-09T05:59:14;100036.72;;;18.39;53.13
56176;BME280;63065;51.082;17.016;2022-09-09T06:01:39;100040.99;;;18.92;53.09
56176;BME280;63065;51.082;17.016;2022-09-09T06:04:04;100045.25;;;18.96;53.38
56176;BME280;63065;51.082;17.016;2022-09-09T06:06:32;100046.86;;;19.05;53.39
56176;BME280;63065;51.082;17.016;2022-09-09T06:08:56;100047.04;;;19.12;53.32
56176;BME280;63065;51.082;17.016;2022-09-09T06:11:22;100043.29;;;18.70;53.36
56176;BME280;63065;51.082;17.016;2022-09-09T06:13:46;100037.41;;;19.02;53.16
56176;BME280;63065;51.082;17.016;2022-09-09T06:16:13;100031.33;;;19.26;53.37
56176;BME280;63065;51.082;17.016;2022-09-09T06:18:38;100031.81;;;19.08;53.31
56176;BME280;63065;51.082;17.016;2022-09-09T06:21:06;100035.05;;;18.81;53.16
56176;BME280;63065;51.082;17.016;2022-09-09T06:23:29;100034.05;;;18.76;53.58
56176;BME280;63065;51.082;17.016;2022-09-09T06:26:01;100033.17;;;18.82;53.53
56176;BME280;63065;51.082;17.016;2022-09-09T06:28:20;100032.68;;;18.92;53.47
56176;BME280;63065;51.082;17.016;2022-09-09T06:30:45;100036.58;;;18.77;53.79
56176;BME280;63065;51.082;17.016;2022-09-09T06:33:10;100036.22;;;19.16;53.93
56176;BME280;63065;51.082;17.016;2022-09-09T06:35:36;100035.79;;;19.34;54.11
56176;BME280;63065;51.082;17.016;2022-09-09T06:38:02;100038.11;;;19.62;53.80
56176;BME280;63065;51.082;17.016;2022-09-09T06:40:27;100043.11;;;19.68;53.72
56176;BME280;63065;51.082;17.016;2022-09-09T06:42:53;100047.00;;;20.17;53.50
56176;BME280;63065;51.082;17.016;2022-09-09T06:45:18;100047.91;;;20.38;53.44
56176;BME280;63065;51.082;17.016;2022-09-09T06:47:44;100051.91;;;20.39;53.22
56176;BME280;63065;51.082;17.016;2022-09-09T06:50:10;100048.75;;;20.11;53.14
56176;BME280;63065;51.082;17.016;2022-09-09T06:52:35;100043.20;;;20.12;53.18
56176;BME280;63065;51.082;17.016;2022-09-09T06:55:01;100047.34;;;19.80;52.81
56176;BME280;63065;51.082;17.016;2022-09-09T06:57:27;100049.26;;;20.31;52.54
56176;BME280;63065;51.082;17.016;2022-09-09T06:59:52;100044.86;;;20.67;52.35
56176;BME280;63065;51.082;17.016;2022-09-09T07:02:18;100047.21;;;20.18;52.58
56176;BME280;63065;51.082;17.016;2022-09-09T07:04:44;100045.98;;;20.80;52.46
56176;BME280;63065;51.082;17.016;2022-09-09T07:07:09;100045.34;;;20.56;51.83
56176;BME280;63065;51.082;17.016;2022-09-09T07:09:34;100048.90;;;20.99;52.32
56176;BME280;63065;51.082;17.016;2022-09-09T07:12:01;100051.99;;;20.87;52.52
56176;BME280;63065;51.082;17.016;2022-09-09T07:14:25;100050.05;;;21.35;52.45
56176;BME280;63065;51.082;17.016;2022-09-09T07:16:51;100048.19;;;20.90;51.11
56176;BME280;63065;51.082;17.016;2022-09-09T07:19:16;100051.67;;;20.75;51.22
56176;BME280;63065;51.082;17.016;2022-09-09T07:21:42;100055.88;;;20.78;51.51
56176;BME280;63065;51.082;17.016;2022-09-09T07:24:07;100052.93;;;20.74;51.81
56176;BME280;63065;51.082;17.016;2022-09-09T07:26:33;100049.91;;;20.47;51.92
56176;BME280;63065;51.082;17.016;2022-09-09T07:28:58;100049.75;;;20.25;52.28
56176;BME280;63065;51.082;17.016;2022-09-09T07:31:25;100047.66;;;20.77;52.99
56176;BME280;63065;51.082;17.016;2022-09-09T07:33:49;100045.52;;;20.67;52.45
56176;BME280;63065;51.082;17.016;2022-09-09T07:36:17;100046.92;;;21.54;52.90
56176;BME280;63065;51.082;17.016;2022-09-09T07:38:41;100051.21;;;21.09;52.88
56176;BME280;63065;51.082;17.016;2022-09-09T07:41:07;100055.22;;;21.51;52.24
56176;BME280;63065;51.082;17.016;2022-09-09T07:43:31;100058.52;;;20.89;50.04
56176;BME280;63065;51.082;17.016;2022-09-09T07:45:58;100060.91;;;20.78;49.76
56176;BME280;63065;51.082;17.016;2022-09-09T07:48:23;100067.93;;;21.44;51.89
56176;BME280;63065;51.082;17.016;2022-09-09T07:50:48;100070.40;;;21.60;50.54
56176;BME280;63065;51.082;17.016;2022-09-09T07:53:14;100069.33;;;20.31;50.14
56176;BME280;63065;51.082;17.016;2022-09-09T07:55:39;100067.41;;;21.33;50.79
56176;BME280;63065;51.082;17.016;2022-09-09T07:58:05;100066.86;;;20.93;52.04
56176;BME280;63065;51.082;17.016;2022-09-09T08:00:30;100065.75;;;21.11;50.09
56176;BME280;63065;51.082;17.016;2022-09-09T08:02:56;100060.39;;;21.23;48.12
56176;BME280;63065;51.082;17.016;2022-09-09T08:05:22;100061.08;;;21.74;50.19
56176;BME280;63065;51.082;17.016;2022-09-09T08:07:48;100065.40;;;21.59;51.31
56176;BME280;63065;51.082;17.016;2022-09-09T08:10:13;100067.25;;;21.88;51.58
56176;BME280;63065;51.082;17.016;2022-09-09T08:12:39;100064.13;;;21.82;51.09
56176;BME280;63065;51.082;17.016;2022-09-09T08:15:05;100062.36;;;22.16;51.92
56176;BME280;63065;51.082;17.016;2022-09-09T08:17:30;100063.98;;;21.90;51.45
56176;BME280;63065;51.082;17.016;2022-09-09T08:19:56;100064.26;;;22.01;51.88
56176;BME280;63065;51.082;17.016;2022-09-09T08:22:21;100061.89;;;22.23;50.63
56176;BME280;63065;51.082;17.016;2022-09-09T08:24:47;100056.76;;;22.31;51.01
56176;BME280;63065;51.082;17.016;2022-09-09T08:27:12;100059.42;;;22.04;51.07
56176;BME280;63065;51.082;17.016;2022-09-09T08:29:38;100058.08;;;21.04;46.76
56176;BME280;63065;51.082;17.016;2022-09-09T08:32:04;100055.54;;;21.92;50.92
56176;BME280;63065;51.082;17.016;2022-09-09T08:34:30;100053.22;;;22.17;51.28
56176;BME280;63065;51.082;17.016;2022-09-09T08:36:55;100051.87;;;22.01;47.46
56176;BME280;63065;51.082;17.016;2022-09-09T08:39:22;100049.62;;;21.98;44.94
56176;BME280;63065;51.082;17.016;2022-09-09T08:41:56;100051.80;;;22.31;49.20
56176;BME280;63065;51.082;17.016;2022-09-09T08:44:18;100057.62;;;22.53;50.45
56176;BME280;63065;51.082;17.016;2022-09-09T08:46:45;100061.79;;;22.63;49.77
56176;BME280;63065;51.082;17.016;2022-09-09T08:49:11;100065.68;;;22.30;48.28
56176;BME280;63065;51.082;17.016;2022-09-09T08:51:31;100065.74;;;22.24;46.64
56176;BME280;63065;51.082;17.016;2022-09-09T08:53:58;100070.11;;;22.64;48.81
56176;BME280;63065;51.082;17.016;2022-09-09T08:56:24;100068.99;;;22.24;48.02
56176;BME280;63065;51.082;17.016;2022-09-09T08:58:49;100070.12;;;21.47;45.96
56176;BME280;63065;51.082;17.016;2022-09-09T09:01:26;100073.07;;;21.30;46.33
56176;BME280;63065;51.082;17.016;2022-09-09T09:03:43;100071.20;;;22.20;46.91
56176;BME280;63065;51.082;17.016;2022-09-09T09:06:10;100075.68;;;22.39;46.13
56176;BME280;63065;51.082;17.016;2022-09-09T09:08:35;100079.16;;;22.88;48.36
56176;BME280;63065;51.082;17.016;2022-09-09T09:10:56;100082.20;;;22.80;49.32
56176;BME280;63065;51.082;17.016;2022-09-09T09:13:27;100081.16;;;21.04;45.08
56176;BME280;63065;51.082;17.016;2022-09-09T09:15:50;100076.50;;;21.95;48.85
56176;BME280;63065;51.082;17.016;2022-09-09T09:18:13;100073.96;;;22.33;49.33
56176;BME280;63065;51.082;17.016;2022-09-09T09:20:42;100071.27;;;22.71;48.86
56176;BME280;63065;51.082;17.016;2022-09-09T09:23:04;100075.76;;;22.65;48.06
56176;BME280;63065;51.082;17.016;2022-09-09T09:25:33;100076.93;;;22.28;49.11
56176;BME280;63065;51.082;17.016;2022-09-09T09:27:59;100075.66;;;22.45;50.11
56176;BME280;63065;51.082;17.016;2022-09-09T09:30:22;100078.00;;;22.46;49.68
56176;BME280;63065;51.082;17.016;2022-09-09T09:32:53;100073.94;;;22.42;48.92
56176;BME280;63065;51.082;17.016;2022-09-09T09:35:12;100075.11;;;21.88;46.38
56176;BME280;63065;51.082;17.016;2022-09-09T09:37:37;100075.65;;;21.33;45.54
56176;BME280;63065;51.082;17.016;2022-09-09T09:40:08;100078.11;;;22.07;47.10
56176;BME280;63065;51.082;17.016;2022-09-09T09:42:29;100079.14;;;21.27;44.62
56176;BME280;63065;51.082;17.016;2022-09-09T09:44:54;100076.08;;;21.40;45.45
56176;BME280;63065;51.082;17.016;2022-09-09T09:47:21;100073.58;;;21.90;48.34
56176;BME280;63065;51.082;17.016;2022-09-09T09:49:51;100075.69;;;21.69;44.81
56176;BME280;63065;51.082;17.016;2022-09-09T09:52:15;100072.99;;;21.38;46.11
56176;BME280;63065;51.082;17.016;2022-09-09T09:54:39;100073.92;;;22.18;48.40
56176;BME280;63065;51.082;17.016;2022-09-09T09:57:08;100076.02;;;22.61;49.36
56176;BME280;63065;51.082;17.016;2022-09-09T09:59:34;100075.28;;;22.65;48.14
56176;BME280;63065;51.082;17.016;2022-09-09T10:02:05;100073.93;;;23.14;46.57
56176;BME280;63065;51.082;17.016;2022-09-09T10:04:22;100075.92;;;21.50;41.52
56176;BME280;63065;51.082;17.016;2022-09-09T10:06:46;100071.81;;;23.11;47.13
56176;BME280;63065;51.082;17.016;2022-09-09T10:09:20;100072.25;;;23.23;48.04
56176;BME280;63065;51.082;17.016;2022-09-09T10:11:44;100074.85;;;23.57;48.73
56176;BME280;63065;51.082;17.016;2022-09-09T10:14:08;100071.91;;;23.60;44.57
56176;BME280;63065;51.082;17.016;2022-09-09T10:16:39;100072.48;;;23.44;45.67
56176;BME280;63065;51.082;17.016;2022-09-09T10:18:59;100070.65;;;22.41;42.47
56176;BME280;63065;51.082;17.016;2022-09-09T10:21:27;100072.34;;;22.78;44.43
56176;BME280;63065;51.082;17.016;2022-09-09T10:23:57;100075.54;;;23.29;47.47
56176;BME280;63065;51.082;17.016;2022-09-09T10:26:20;100076.03;;;23.07;42.22
56176;BME280;63065;51.082;17.016;2022-09-09T10:28:52;100075.51;;;22.21;42.81
56176;BME280;63065;51.082;17.016;2022-09-09T10:31:13;100072.63;;;21.39;40.73
56176;BME280;63065;51.082;17.016;2022-09-09T10:33:34;100066.04;;;22.17;39.64
56176;BME280;63065;51.082;17.016;2022-09-09T10:36:01;100060.41;;;22.91;43.12
56176;BME280;63065;51.082;17.016;2022-09-09T10:38:25;100061.05;;;23.41;41.96
56176;BME280;63065;51.082;17.016;2022-09-09T10:43:18;100061.95;;;23.32;41.64
56176;BME280;63065;51.082;17.016;2022-09-09T10:45:41;100065.09;;;23.28;45.99
56176;BME280;63065;51.082;17.016;2022-09-09T10:48:13;100068.78;;;23.09;45.30
56176;BME280;63065;51.082;17.016;2022-09-09T10:53:00;100063.28;;;22.62;42.21
56176;BME280;63065;51.082;17.016;2022-09-09T10:55:20;100059.32;;;22.72;45.77
56176;BME280;63065;51.082;17.016;2022-09-09T10:57:47;100058.85;;;23.12;46.64
56176;BME280;63065;51.082;17.016;2022-09-09T11:00:17;100058.99;;;23.02;41.72
56176;BME280;63065;51.082;17.016;2022-09-09T11:02:36;100059.08;;;23.72;43.86
56176;BME280;63065;51.082;17.016;2022-09-09T11:05:05;100058.35;;;23.77;43.22
56176;BME280;63065;51.082;17.016;2022-09-09T11:07:33;100056.26;;;23.63;42.68
56176;BME280;63065;51.082;17.016;2022-09-09T11:09:57;100059.55;;;24.08;42.80
56176;BME280;63065;51.082;17.016;2022-09-09T11:12:19;100059.13;;;24.24;42.65
56176;BME280;63065;51.082;17.016;2022-09-09T11:14:47;100057.85;;;24.64;43.05
56176;BME280;63065;51.082;17.016;2022-09-09T11:17:12;100060.28;;;24.69;42.67
56176;BME280;63065;51.082;17.016;2022-09-09T11:19:37;100058.98;;;25.32;41.22
56176;BME280;63065;51.082;17.016;2022-09-09T11:22:03;100059.93;;;25.21;40.54
56176;BME280;63065;51.082;17.016;2022-09-09T11:24:31;100064.55;;;25.40;41.14
56176;BME280;63065;51.082;17.016;2022-09-09T11:26:55;100061.05;;;25.66;41.53
56176;BME280;63065;51.082;17.016;2022-09-09T11:29:28;100057.97;;;26.04;41.00
56176;BME280;63065;51.082;17.016;2022-09-09T11:31:46;100058.08;;;25.87;41.36
56176;BME280;63065;51.082;17.016;2022-09-09T11:34:20;100058.24;;;25.51;39.32
56176;BME280;63065;51.082;17.016;2022-09-09T11:36:48;100060.73;;;25.53;40.45
56176;BME280;63065;51.082;17.016;2022-09-09T11:39:22;100058.76;;;25.81;40.97
56176;BME280;63065;51.082;17.016;2022-09-09T11:41:33;100054.51;;;25.76;41.14
56176;BME280;63065;51.082;17.016;2022-09-09T11:43:52;100054.36;;;25.74;39.92
56176;BME280;63065;51.082;17.016;2022-09-09T11:46:20;100055.89;;;26.43;39.08
56176;BME280;63065;51.082;17.016;2022-09-09T11:48:57;100056.32;;;26.20;36.60
56176;BME280;63065;51.082;17.016;2022-09-09T11:51:10;100053.08;;;26.05;33.64
56176;BME280;63065;51.082;17.016;2022-09-09T11:53:46;100050.11;;;26.40;38.07
56176;BME280;63065;51.082;17.016;2022-09-09T11:56:03;100054.38;;;26.06;38.87
56176;BME280;63065;51.082;17.016;2022-09-09T11:58:28;100052.50;;;26.22;39.74
56176;BME280;63065;51.082;17.016;2022-09-09T12:00:52;100053.70;;;26.18;39.20
56176;BME280;63065;51.082;17.016;2022-09-09T12:05:45;100046.80;;;25.61;38.91
56176;BME280;63065;51.082;17.016;2022-09-09T12:08:10;100050.50;;;25.38;40.81
56176;BME280;63065;51.082;17.016;2022-09-09T12:10:37;100048.96;;;25.90;40.58
56176;BME280;63065;51.082;17.016;2022-09-09T12:15:28;100049.01;;;25.64;39.63
56176;BME280;63065;51.082;17.016;2022-09-09T12:17:54;100050.49;;;25.84;41.57
56176;BME280;63065;51.082;17.016;2022-09-09T12:20:20;100048.37;;;26.12;39.48
56176;BME280;63065;51.082;17.016;2022-09-09T12:22:54;100043.78;;;26.33;38.77
56176;BME280;63065;51.082;17.016;2022-09-09T12:25:17;100042.69;;;25.92;35.20
56176;BME280;63065;51.082;17.016;2022-09-09T12:27:40;100041.40;;;26.49;39.01
56176;BME280;63065;51.082;17.016;2022-09-09T12:30:03;100038.99;;;26.49;36.76
56176;BME280;63065;51.082;17.016;2022-09-09T12:32:27;100041.79;;;26.84;38.93
56176;BME280;63065;51.082;17.016;2022-09-09T12:34:54;100038.97;;;27.08;36.03
56176;BME280;63065;51.082;17.016;2022-09-09T12:37:24;100041.66;;;26.86;36.52
56176;BME280;63065;51.082;17.016;2022-09-09T12:39:47;100040.59;;;27.34;37.14
56176;BME280;63065;51.082;17.016;2022-09-09T12:42:16;100035.63;;;27.11;36.23